Time;durP1;ratioP1;P1;durP2;ratioP2;P2;SDS_P1;SDS_P2;PMS_P1;PMS_P2;Temp;Humidity;BMP_temperature;BMP_pressure;BME280_temperature;BME280_humidity;BME280_pressure;Samples;Min_cycle;Max_cycle;Signal;HPM_P1;HPM_P2
2022/07/28 05:01:43;;;;;;;6.63;2.05;;;17.30;83.20;;;;;;5762054;23;20048;-71
2022/07/28 05:04:09;;;;;;;3.83;1.60;;;17.40;83.80;;;;;;4935815;29;20040;-69
2022/07/28 05:06:35;;;;;;;5.05;1.88;;;17.50;83.60;;;;;;4946587;29;20074;-69
2022/07/28 05:09:02;;;;;;;5.03;2.00;;;17.50;83.50;;;;;;4946196;29;20035;-71
2022/07/28 05:11:28;;;;;;;3.63;1.50;;;17.60;83.10;;;;;;4928687;29;20032;-71
2022/07/28 05:13:53;;;;;;;3.67;1.65;;;17.70;82.80;;;;;;4927533;29;20034;-72
2022/07/28 05:16:19;;;;;;;7.78;2.40;;;17.80;82.80;;;;;;4943703;29;20062;-71
2022/07/28 05:18:45;;;;;;;5.03;1.92;;;17.90;82.60;;;;;;4945858;29;20046;-70
2022/07/28 05:21:11;;;;;;;5.82;1.80;;;17.90;82.30;;;;;;4946241;29;20047;-70
2022/07/28 05:23:36;;;;;;;4.75;1.80;;;18.00;82.20;;;;;;4946603;29;20032;-71
2022/07/28 05:26:03;;;;;;;5.47;2.03;;;18.00;81.80;;;;;;4946161;29;20038;-70
2022/07/28 05:28:29;;;;;;;5.40;1.50;;;18.00;82.00;;;;;;4946636;29;20134;-71
2022/07/28 05:30:55;;;;;;;6.82;1.77;;;18.00;82.30;;;;;;4945191;29;20040;-69
2022/07/28 05:33:21;;;;;;;4.68;1.60;;;18.10;81.90;;;;;;4946508;29;20028;-72
2022/07/28 05:35:53;;;;;;;3.80;1.70;;;18.10;81.90;;;;;;4937757;29;20348;-70
2022/07/28 05:38:19;;;;;;;5.53;1.58;;;18.10;81.50;;;;;;4927386;29;20043;-72
2022/07/28 05:40:46;;;;;;;5.78;1.70;;;18.10;82.10;;;;;;4926765;29;20032;-70
2022/07/28 05:43:12;;;;;;;4.60;1.75;;;18.20;81.90;;;;;;4910286;29;20209;-71
2022/07/28 05:45:38;;;;;;;4.28;1.58;;;18.40;82.00;;;;;;4926185;29;20036;-72
2022/07/28 05:48:04;;;;;;;4.95;1.67;;;18.50;81.80;;;;;;4926508;29;20087;-72
2022/07/28 05:50:30;;;;;;;4.18;1.95;;;18.60;81.00;;;;;;4910329;29;20252;-71
2022/07/28 05:52:55;;;;;;;5.90;1.60;;;18.60;80.30;;;;;;4926450;29;20028;-73
2022/07/28 05:55:21;;;;;;;5.25;1.98;;;18.70;81.00;;;;;;4926790;29;20111;-72
2022/07/28 05:57:47;;;;;;;3.70;1.50;;;18.70;80.80;;;;;;4926082;29;20024;-72
2022/07/28 06:00:18;;;;;;;5.10;2.10;;;18.70;80.50;;;;;;4926105;29;20032;-73
2022/07/28 06:02:48;;;;;;;3.78;1.80;;;18.90;80.60;;;;;;4926553;29;20048;-72
2022/07/28 06:05:19;;;;;;;5.80;2.15;;;18.90;80.10;;;;;;4926963;29;20028;-72
2022/07/28 06:07:47;;;;;;;5.40;1.75;;;19.10;80.10;;;;;;4926061;29;20036;-71
2022/07/28 06:10:15;;;;;;;7.40;1.98;;;19.20;79.50;;;;;;4926822;29;20108;-71
2022/07/28 06:12:41;;;;;;;;;;;19.30;79.40;;;;;;4926678;29;20043;-72
2022/07/28 06:15:15;;;;;;;5.30;1.88;;;19.40;78.90;;;;;;4925941;29;19910;-71
2022/07/28 06:17:41;;;;;;;6.38;1.80;;;19.50;79.00;;;;;;4926244;29;20044;-71
2022/07/28 06:20:08;;;;;;;4.45;1.80;;;19.50;78.90;;;;;;4926236;29;20274;-71
2022/07/28 06:22:47;;;;;;;5.25;2.30;;;19.60;78.70;;;;;;4926513;29;20079;-72
2022/07/28 06:25:18;;;;;;;4.53;1.63;;;19.70;78.30;;;;;;4926619;29;20036;-72
2022/07/28 06:27:45;;;;;;;4.53;1.95;;;19.80;78.60;;;;;;4925728;29;20044;-71
2022/07/28 06:30:12;;;;;;;8.00;1.90;;;19.80;78.00;;;;;;4924548;29;20044;-72
2022/07/28 06:32:38;;;;;;;5.88;2.10;;;19.80;78.20;;;;;;4926670;29;20020;-71
2022/07/28 06:35:04;;;;;;;4.25;2.03;;;19.90;78.40;;;;;;4926053;29;20024;-72
2022/07/28 06:37:30;;;;;;;5.70;2.20;;;20.00;78.50;;;;;;4925179;29;20043;-72
2022/07/28 06:39:56;;;;;;;4.68;2.70;;;20.10;78.50;;;;;;4925867;29;20048;-70
2022/07/28 06:42:22;;;;;;;5.05;2.40;;;20.30;78.50;;;;;;4926278;29;20031;-70
2022/07/28 06:44:50;;;;;;;6.07;2.63;;;20.50;78.30;;;;;;4925298;29;20108;-70
2022/07/28 06:47:16;;;;;;;3.67;2.50;;;20.60;77.70;;;;;;4940358;29;20352;-70
2022/07/28 06:49:42;;;;;;;9.65;2.85;;;20.70;77.50;;;;;;4926179;29;20036;-70
2022/07/28 06:52:11;;;;;;;7.90;3.00;;;20.80;77.60;;;;;;4933814;29;20079;-70
2022/07/28 06:54:37;;;;;;;5.75;2.50;;;20.80;77.60;;;;;;4945170;29;20170;-71
2022/07/28 06:57:03;;;;;;;5.53;2.53;;;20.90;77.50;;;;;;4944384;29;20152;-71
2022/07/28 06:59:29;;;;;;;4.55;2.40;;;21.00;77.30;;;;;;4928453;29;20031;-71
2022/07/28 07:02:00;;;;;;;6.00;3.00;;;21.20;76.30;;;;;;4943461;29;20063;-69
2022/07/28 07:04:30;;;;;;;6.18;2.85;;;21.30;76.60;;;;;;4935437;29;20032;-76
2022/07/28 07:07:08;;;;;;;4.80;2.60;;;21.20;76.90;;;;;;4925394;29;20028;-78
2022/07/28 07:09:34;;;;;;;5.03;3.00;;;21.20;76.90;;;;;;4936178;29;20038;-71
2022/07/28 07:12:00;;;;;;;5.40;2.75;;;21.40;76.60;;;;;;4963570;29;20306;-70
2022/07/28 07:14:26;;;;;;;5.70;3.33;;;21.50;76.00;;;;;;4963691;29;20273;-73
2022/07/28 07:16:53;;;;;;;6.57;2.88;;;21.60;76.10;;;;;;4963165;29;20046;-77
2022/07/28 07:19:21;;;;;;;6.07;3.28;;;21.80;76.20;;;;;;4947156;29;20221;-71
2022/07/28 07:21:47;;;;;;;6.22;2.90;;;21.80;75.80;;;;;;4960304;29;20035;-71
2022/07/28 07:24:13;;;;;;;4.88;2.80;;;21.80;76.30;;;;;;4954044;29;20197;-71
2022/07/28 07:26:39;;;;;;;5.82;3.33;;;21.80;76.20;;;;;;4953252;29;20120;-70
2022/07/28 07:29:06;;;;;;;7.43;3.47;;;22.00;75.60;;;;;;4945098;29;20314;-70
2022/07/28 07:31:37;;;;;;;5.70;3.50;;;22.10;75.90;;;;;;4947145;29;20036;-70
2022/07/28 07:34:03;;;;;;;8.45;3.90;;;22.20;75.90;;;;;;4942890;29;20058;-71
2022/07/28 07:36:29;;;;;;;8.75;4.53;;;22.30;75.80;;;;;;4943097;29;20031;-72
2022/07/28 07:38:55;;;;;;;7.97;3.92;;;22.40;75.70;;;;;;4948911;29;20348;-70
2022/07/28 07:41:21;;;;;;;5.63;3.03;;;22.40;75.60;;;;;;4941370;29;20058;-72
2022/07/28 07:43:48;;;;;;;7.63;3.80;;;22.60;74.80;;;;;;4927760;29;20091;-70
2022/07/28 07:46:14;;;;;;;6.80;3.58;;;22.70;75.40;;;;;;4927401;29;20036;-70
2022/07/28 07:48:40;;;;;;;4.53;3.45;;;22.80;74.80;;;;;;4927911;29;20043;-69
2022/07/28 07:51:07;;;;;;;4.78;3.60;;;22.80;75.30;;;;;;4927697;29;20122;-71
2022/07/28 07:53:38;;;;;;;7.57;3.25;;;22.80;75.20;;;;;;4927983;29;20044;-80
2022/07/28 07:56:04;;;;;;;6.63;3.75;;;22.80;75.50;;;;;;4944014;29;20339;-70
2022/07/28 07:58:30;;;;;;;8.32;3.80;;;22.90;75.20;;;;;;4965816;29;20055;-71
2022/07/28 08:00:56;;;;;;;5.40;3.25;;;23.00;75.30;;;;;;4965014;28;20095;-70
2022/07/28 08:03:22;;;;;;;5.35;3.55;;;23.10;75.00;;;;;;4965537;29;20126;-70
2022/07/28 08:05:54;;;;;;;4.32;3.05;;;23.10;74.70;;;;;;4955104;29;20032;-70
2022/07/28 08:08:20;;;;;;;6.72;3.70;;;23.20;74.90;;;;;;4954627;29;20059;-71
2022/07/28 08:10:49;;;;;;;6.35;3.58;;;23.20;74.50;;;;;;4951343;29;20301;-69
2022/07/28 08:13:19;;;;;;;6.60;3.80;;;23.30;74.80;;;;;;4946725;29;20317;-69
2022/07/28 08:15:45;;;;;;;5.22;3.70;;;23.50;74.40;;;;;;4960881;28;20039;-71
2022/07/28 08:18:11;;;;;;;7.70;3.47;;;23.50;74.20;;;;;;4964871;29;20027;-72
2022/07/28 08:20:42;;;;;;;8.32;3.92;;;23.60;74.10;;;;;;4966093;29;20019;-71
2022/07/28 08:23:08;;;;;;;8.25;3.83;;;23.50;74.40;;;;;;4958787;29;20128;-70
2022/07/28 08:25:36;;;;;;;8.27;3.97;;;23.70;74.50;;;;;;4936297;29;20043;-71
2022/07/28 08:28:02;;;;;;;6.13;3.97;;;23.80;73.90;;;;;;4950640;29;20121;-70
2022/07/28 08:30:27;;;;;;;10.95;3.60;;;23.80;73.60;;;;;;4956315;29;20039;-70
2022/07/28 08:32:53;;;;;;;6.03;2.92;;;24.00;73.90;;;;;;4952258;29;20064;-69
2022/07/28 08:35:19;;;;;;;5.78;3.60;;;24.10;72.90;;;;;;4954806;29;20027;-72
2022/07/28 08:37:45;;;;;;;4.40;3.47;;;24.30;73.10;;;;;;4954319;29;20220;-73
2022/07/28 08:40:13;;;;;;;6.40;3.33;;;24.30;73.00;;;;;;4951544;29;20047;-71
2022/07/28 08:42:51;;;;;;;6.45;3.60;;;24.40;73.10;;;;;;4949001;29;20333;-74
2022/07/28 08:45:18;;;;;;;6.70;4.20;;;24.60;72.80;;;;;;4944216;29;20042;-73
2022/07/28 08:47:46;;;;;;;6.85;3.90;;;24.70;72.00;;;;;;4945947;29;20262;-70
2022/07/28 08:50:14;;;;;;;7.40;4.13;;;24.70;72.50;;;;;;4952235;28;20308;-72
2022/07/28 08:52:44;;;;;;;4.88;3.63;;;24.90;72.60;;;;;;4943499;29;20050;-73
2022/07/28 08:55:11;;;;;;;6.28;3.72;;;25.00;72.50;;;;;;4927247;29;20044;-71
2022/07/28 08:57:40;;;;;;;6.88;3.30;;;25.10;72.10;;;;;;4953129;29;20337;-72
2022/07/28 09:00:08;;;;;;;6.53;3.60;;;25.10;72.00;;;;;;4944332;28;20060;-72
2022/07/28 09:02:41;;;;;;;9.15;3.67;;;25.20;72.00;;;;;;4943061;29;20111;-72
2022/07/28 09:05:08;;;;;;;8.35;3.65;;;25.30;71.90;;;;;;4954070;29;20038;-72
2022/07/28 09:07:37;;;;;;;6.45;3.90;;;25.50;71.80;;;;;;4964329;29;20035;-74
2022/07/28 09:10:08;;;;;;;7.30;4.07;;;25.60;71.00;;;;;;4954635;29;20031;-74
2022/07/28 09:12:34;;;;;;;6.10;3.60;;;25.80;70.80;;;;;;4964595;29;20035;-74
2022/07/28 09:15:07;;;;;;;4.72;3.67;;;25.90;70.20;;;;;;4952852;29;20024;-74
2022/07/28 09:17:34;;;;;;;5.95;3.40;;;25.90;70.20;;;;;;4928380;29;20044;-72
2022/07/28 09:20:00;;;;;;;6.65;3.75;;;26.00;70.00;;;;;;4945134;29;20361;-74
2022/07/28 09:22:26;;;;;;;6.85;3.92;;;26.00;70.40;;;;;;4945291;29;20217;-73
2022/07/28 09:24:52;;;;;;;6.82;4.30;;;26.00;70.90;;;;;;4945173;29;20024;-71
2022/07/28 09:27:18;;;;;;;6.10;3.50;;;26.00;69.90;;;;;;4945001;29;20059;-71
2022/07/28 09:29:57;;;;;;;6.47;3.72;;;26.00;70.40;;;;;;4947770;29;20038;-72
2022/07/28 09:32:24;;;;;;;6.32;3.80;;;26.00;70.40;;;;;;4960176;29;20302;-71
2022/07/28 09:34:51;;;;;;;7.80;3.67;;;26.20;70.00;;;;;;4945051;29;20040;-73
2022/07/28 09:37:25;;;;;;;5.22;3.40;;;26.40;69.70;;;;;;4944729;29;20361;-72
2022/07/28 09:39:53;;;;;;;6.95;3.97;;;26.30;69.50;;;;;;4944748;29;20476;-71
2022/07/28 09:42:20;;;;;;;6.43;4.05;;;26.20;69.30;;;;;;4944586;29;20063;-71
2022/07/28 09:45:06;;;;;;;6.50;3.80;;;26.40;69.80;;;;;;4945188;29;20027;-72
2022/07/28 09:47:32;;;;;;;9.23;3.60;;;26.50;69.40;;;;;;4944832;29;20229;-72
2022/07/28 09:49:58;;;;;;;8.43;3.58;;;26.70;69.10;;;;;;4944651;29;20106;-72
2022/07/28 09:52:33;;;;;;;20.45;4.40;;;26.90;68.20;;;;;;4945011;29;20031;-71
2022/07/28 09:55:00;;;;;;;8.27;3.65;;;27.20;67.80;;;;;;4944809;29;20298;-72
2022/07/28 09:57:30;;;;;;;5.65;3.63;;;27.30;67.20;;;;;;4946293;29;20046;-71
2022/07/28 09:59:56;;;;;;;5.03;3.03;;;27.30;67.50;;;;;;4946464;29;20072;-72
2022/07/28 10:02:24;;;;;;;6.00;3.72;;;27.50;66.60;;;;;;4942931;29;20060;-72
2022/07/28 10:04:52;;;;;;;7.30;3.30;;;27.50;66.90;;;;;;4937944;29;20326;-72
2022/07/28 10:07:18;;;;;;;5.70;3.30;;;27.60;66.90;;;;;;4944218;29;20039;-72
2022/07/28 10:10:08;;;;;;;6.05;3.13;;;27.80;66.80;;;;;;4944694;29;20027;-73
2022/07/28 10:12:35;;;;;;;5.20;3.53;;;27.90;66.40;;;;;;4937299;29;20092;-72
2022/07/28 10:16:13;;;;;;;6.10;3.40;;;27.90;66.60;;;;;;4926999;29;20028;-74
2022/07/28 10:18:08;;;;;;;5.28;3.25;;;28.00;66.40;;;;;;4926989;29;20175;-72
2022/07/28 10:20:35;;;;;;;5.18;3.28;;;27.80;66.10;;;;;;4944175;29;20031;-75
2022/07/28 10:23:07;;;;;;;7.63;3.30;;;27.80;66.00;;;;;;4943668;29;20040;-72
2022/07/28 10:25:34;;;;;;;4.53;2.92;;;27.90;66.00;;;;;;4943969;29;20266;-73
2022/07/28 10:28:02;;;;;;;6.78;3.17;;;28.10;65.80;;;;;;4943827;29;20032;-75
2022/07/28 10:30:30;;;;;;;5.60;3.50;;;28.40;65.20;;;;;;4943294;28;20043;-74
2022/07/28 10:33:03;;;;;;;4.20;3.05;;;28.50;65.00;;;;;;4943371;29;20087;-75
2022/07/28 10:35:30;;;;;;;6.03;3.78;;;28.80;64.50;;;;;;4944392;29;20042;-75
2022/07/28 10:38:06;;;;;;;4.35;2.67;;;28.90;63.80;;;;;;4943796;29;20054;-75
2022/07/28 10:40:37;;;;;;;5.65;3.10;;;29.00;64.10;;;;;;4927491;29;20076;-75
2022/07/28 10:43:04;;;;;;;6.53;3.17;;;29.10;63.90;;;;;;4943846;29;20121;-74
2022/07/28 10:45:30;;;;;;;5.60;3.40;;;29.30;63.50;;;;;;4943190;29;20082;-74
2022/07/28 10:47:57;;;;;;;6.97;3.58;;;29.30;63.20;;;;;;4943494;29;20035;-76
2022/07/28 10:50:23;;;;;;;7.03;3.00;;;29.60;63.40;;;;;;4944397;29;20091;-75
2022/07/28 10:52:49;;;;;;;6.03;3.17;;;29.60;62.50;;;;;;4944145;29;20051;-74
2022/07/28 10:55:45;;;;;;;8.85;3.35;;;29.80;62.60;;;;;;4942938;29;20249;-74
2022/07/28 10:58:29;;;;;;;9.23;3.45;;;30.20;62.00;;;;;;4932055;29;20055;-75
2022/07/28 11:00:54;;;;;;;7.78;3.58;;;30.40;61.20;;;;;;4924397;29;20040;-75
2022/07/28 11:03:43;;;;;;;4.90;2.90;;;30.30;61.20;;;;;;4913652;29;20059;-75
2022/07/28 11:06:38;;;;;;;4.95;3.20;;;30.20;61.20;;;;;;4924476;29;20342;-74
2022/07/28 11:09:16;;;;;;;6.00;2.92;;;30.10;60.60;;;;;;4927480;29;20040;-77
2022/07/28 11:11:44;;;;;;;7.38;3.00;;;30.00;61.00;;;;;;4924981;29;20096;-76
2022/07/28 11:14:33;;;;;;;6.82;3.08;;;29.90;61.50;;;;;;4929745;29;20034;-77
2022/07/28 11:16:59;;;;;;;8.43;3.10;;;30.30;60.90;;;;;;4942780;29;20040;-77
2022/07/28 11:19:28;;;;;;;7.28;3.00;;;30.70;59.90;;;;;;4943736;29;20042;-76
2022/07/28 11:22:23;;;;;;;5.15;3.22;;;30.80;59.80;;;;;;4943470;29;20229;-75
2022/07/28 11:25:01;;;;;;;6.90;2.83;;;30.80;60.20;;;;;;4943483;29;20343;-78
2022/07/28 11:27:39;;;;;;;5.15;3.00;;;31.00;59.30;;;;;;4943636;29;20343;-74
2022/07/28 11:30:05;;;;;;;8.38;3.22;;;31.40;59.00;;;;;;4942309;28;20353;-75
2022/07/28 11:32:57;;;;;;;5.05;2.70;;;32.00;57.90;;;;;;4943318;29;20040;-73
2022/07/28 11:35:25;;;;;;;6.78;2.65;;;32.20;57.10;;;;;;4939299;29;20047;-74
2022/07/28 11:38:00;;;;;;;3.78;2.45;;;33.00;56.00;;;;;;4943230;29;20055;-74
2022/07/28 11:40:32;;;;;;;11.35;4.35;;;33.50;55.30;;;;;;4943221;29;20019;-75
2022/07/28 11:43:19;;;;;;;11.93;3.20;;;33.60;55.40;;;;;;4942661;29;20095;-75
2022/07/28 11:45:50;;;;;;;8.27;3.17;;;33.40;55.50;;;;;;4942472;29;20313;-75
2022/07/28 11:48:20;;;;;;;8.40;3.25;;;33.50;55.50;;;;;;4942938;29;20039;-75
2022/07/28 11:51:01;;;;;;;8.90;2.92;;;34.40;54.40;;;;;;4943503;29;20038;-75
2022/07/28 11:53:40;;;;;;;4.68;2.50;;;35.10;53.20;;;;;;4943228;29;20039;-73
2022/07/28 11:56:10;;;;;;;5.10;2.60;;;35.20;52.30;;;;;;4946038;29;20031;-74
2022/07/28 11:58:36;;;;;;;5.18;2.83;;;34.90;52.60;;;;;;4942985;29;20043;-74
2022/07/28 12:01:29;;;;;;;6.55;2.50;;;34.30;53.50;;;;;;4961007;29;20122;-74
2022/07/28 12:03:57;;;;;;;3.90;2.15;;;34.30;53.90;;;;;;4925140;29;20052;-74
2022/07/28 12:06:33;;;;;;;5.35;2.30;;;35.20;52.50;;;;;;4905311;29;20153;-74
2022/07/28 12:09:01;;;;;;;4.00;2.38;;;35.70;52.00;;;;;;4904612;29;20036;-75
2022/07/28 12:11:31;;;;;;;5.47;2.47;;;35.80;51.70;;;;;;4905453;29;20047;-74
2022/07/28 12:14:08;;;;;;;4.72;2.35;;;36.00;51.70;;;;;;4908214;29;20024;-73
2022/07/28 12:16:37;;;;;;;4.67;2.43;;;36.50;51.40;;;;;;4906902;29;20126;-75
2022/07/28 12:19:04;;;;;;;4.00;1.95;;;38.00;50.00;;;;;;4923629;29;20067;-73
2022/07/28 12:21:39;;;;;;;;;;;39.30;48.70;;;;;;4924581;29;20031;-73
2022/07/28 12:24:07;;;;;;;5.60;2.10;;;39.40;48.10;;;;;;4923538;29;20176;-73
2022/07/28 12:26:34;;;;;;;3.97;1.83;;;39.50;47.80;;;;;;4926465;29;20330;-73
2022/07/28 12:29:01;;;;;;;2.80;1.80;;;39.70;47.10;;;;;;4924285;29;20103;-74
2022/07/28 12:31:31;;;;;;;4.67;2.00;;;39.40;48.10;;;;;;4929388;29;20039;-75
2022/07/28 12:34:01;;;;;;;5.75;2.78;;;38.60;47.80;;;;;;4927668;29;20044;-73
2022/07/28 12:36:28;;;;;;;5.50;2.88;;;37.60;48.50;;;;;;4927357;29;20370;-75
2022/07/28 12:38:54;;;;;;;4.57;2.22;;;36.30;49.30;;;;;;4927473;29;20040;-74
2022/07/28 12:41:21;;;;;;;4.00;2.40;;;35.90;49.90;;;;;;4926712;29;20080;-74
2022/07/28 12:43:54;;;;;;;3.80;2.40;;;35.90;50.10;;;;;;4927196;29;20052;-75
2022/07/28 12:46:27;;;;;;;3.47;2.33;;;35.90;49.60;;;;;;4926451;29;20048;-73
2022/07/28 12:48:56;;;;;;;3.85;2.08;;;35.30;50.00;;;;;;4927488;29;20287;-72
2022/07/28 12:51:33;;;;;;;4.70;2.50;;;35.50;49.90;;;;;;4926835;29;20028;-73
2022/07/28 12:54:12;;;;;;;4.35;2.08;;;35.40;49.60;;;;;;4927521;29;20039;-74
2022/07/28 12:56:48;;;;;;;10.82;2.40;;;35.00;49.80;;;;;;4927035;29;20137;-75
2022/07/28 12:59:16;;;;;;;3.85;2.22;;;34.80;50.20;;;;;;4910057;29;20047;-72
2022/07/28 13:01:53;;;;;;;;;;;34.80;50.10;;;;;;4929739;29;20043;-72
2022/07/28 13:04:39;;;;;;;4.40;2.22;;;34.80;50.10;;;;;;4949316;29;19967;-72
2022/07/28 13:07:08;;;;;;;3.38;2.00;;;34.80;50.30;;;;;;4945208;29;20039;-70
2022/07/28 13:09:46;;;;;;;4.45;2.13;;;34.20;51.20;;;;;;4944479;29;20213;-71
2022/07/28 13:12:14;;;;;;;5.18;2.22;;;34.40;51.30;;;;;;4945197;29;20061;-71
2022/07/28 13:14:43;;;;;;;6.88;2.10;;;34.40;51.20;;;;;;4924902;29;20227;-71
2022/07/28 13:17:09;;;;;;;5.20;2.50;;;34.50;51.20;;;;;;4925501;29;20040;-70
2022/07/28 13:19:38;;;;;;;5.50;2.30;;;34.70;51.20;;;;;;4909700;29;20373;-73
2022/07/28 13:22:04;;;;;;;3.78;1.92;;;35.90;50.40;;;;;;4893765;29;20063;-72
2022/07/28 13:24:30;;;;;;;5.72;2.30;;;36.80;49.50;;;;;;4926460;29;20047;-71
2022/07/28 13:26:57;;;;;;;4.30;2.03;;;36.40;49.00;;;;;;4926358;29;20035;-72
2022/07/28 13:29:24;;;;;;;5.07;2.17;;;36.30;48.90;;;;;;4926401;29;20035;-73
2022/07/28 13:31:53;;;;;;;6.22;2.17;;;36.20;48.80;;;;;;4926142;29;20040;-74
2022/07/28 13:34:18;;;;;;;5.10;2.20;;;35.90;48.60;;;;;;4926050;29;20036;-73
2022/07/28 13:36:45;;;;;;;2.70;1.90;;;35.90;49.10;;;;;;4925560;29;20042;-72
2022/07/28 13:39:12;;;;;;;4.30;1.90;;;36.60;48.40;;;;;;4908945;29;20039;-72
2022/07/28 13:41:39;;;;;;;2.90;2.00;;;37.00;48.10;;;;;;4925882;29;20040;-73
2022/07/28 13:44:06;;;;;;;3.75;2.00;;;36.60;47.90;;;;;;4925691;29;20032;-72
2022/07/28 13:46:32;;;;;;;4.22;1.92;;;36.30;48.60;;;;;;4908661;29;20341;-73
2022/07/28 13:48:58;;;;;;;3.60;1.88;;;37.40;47.80;;;;;;4909504;29;20043;-72
2022/07/28 13:51:27;;;;;;;4.47;2.00;;;39.10;45.90;;;;;;4925417;29;20058;-69
2022/07/28 13:53:54;;;;;;;3.33;1.90;;;41.20;44.60;;;;;;4926056;29;20040;-71
2022/07/28 13:56:41;;;;;;;4.10;1.90;;;43.10;42.80;;;;;;4925489;29;20360;-71
2022/07/28 13:59:10;;;;;;;3.58;1.35;;;43.60;42.50;;;;;;4925514;29;20028;-73
2022/07/28 14:01:36;;;;;;;4.43;1.70;;;44.60;41.50;;;;;;4925094;29;20059;-73
2022/07/28 14:04:03;;;;;;;3.30;1.70;;;44.80;41.10;;;;;;4912525;29;20054;-73
2022/07/28 14:06:35;;;;;;;4.28;1.80;;;45.30;41.30;;;;;;4925770;29;20027;-73
2022/07/28 14:09:04;;;;;;;3.88;1.80;;;45.00;40.90;;;;;;4925359;29;20047;-73
2022/07/28 14:11:30;;;;;;;3.50;1.45;;;44.40;40.70;;;;;;4925673;29;20401;-70
2022/07/28 14:13:57;;;;;;;3.85;1.80;;;45.90;40.90;;;;;;4908520;29;20031;-72
2022/07/28 14:16:23;;;;;;;3.70;1.63;;;45.70;40.90;;;;;;4892285;29;20050;-71
2022/07/28 14:18:50;;;;;;;2.95;1.92;;;44.90;40.60;;;;;;4925735;29;20032;-72
2022/07/28 14:21:16;;;;;;;3.40;1.88;;;43.90;41.30;;;;;;4908025;29;20262;-72
2022/07/28 14:23:42;;;;;;;5.73;1.90;;;43.80;41.50;;;;;;4925733;29;20032;-74
2022/07/28 14:26:08;;;;;;;4.80;2.03;;;44.80;41.00;;;;;;4924815;29;20091;-72
2022/07/28 14:28:37;;;;;;;3.38;1.77;;;45.80;40.40;;;;;;4925411;29;20043;-74
2022/07/28 14:34:26;;;;;;;3.42;1.63;;;47.10;40.00;;;;;;4924911;29;20028;-73
2022/07/28 14:36:59;;;;;;;4.82;1.80;;;48.40;39.40;;;;;;4925040;29;20024;-73
2022/07/28 14:39:28;;;;;;;2.72;1.63;;;48.40;38.90;;;;;;4907786;29;20381;-73
2022/07/28 14:41:54;;;;;;;3.95;1.85;;;48.30;38.60;;;;;;4907816;29;20254;-72
2022/07/28 14:44:20;;;;;;;4.35;1.70;;;47.50;38.20;;;;;;4924271;29;20043;-72
2022/07/28 14:46:46;;;;;;;4.68;1.90;;;46.70;38.70;;;;;;4899957;29;20048;-75
2022/07/28 14:49:12;;;;;;;7.82;3.10;;;46.40;39.10;;;;;;4873339;29;20234;-73
2022/07/28 14:51:41;;;;;;;4.25;1.88;;;45.50;39.30;;;;;;4905886;29;20033;-72
2022/07/28 14:54:32;;;;;;;5.13;1.88;;;46.40;39.30;;;;;;4888860;29;20029;-73
2022/07/28 14:56:57;;;;;;;4.07;1.50;;;47.80;38.30;;;;;;4888253;29;20211;-72
2022/07/28 14:59:23;;;;;;;3.55;1.80;;;48.50;37.60;;;;;;4886649;29;20230;-72
2022/07/28 15:01:49;;;;;;;3.03;1.50;;;49.20;37.30;;;;;;4883786;29;20052;-73
2022/07/28 15:04:16;;;;;;;4.10;1.60;;;50.10;37.20;;;;;;4909967;29;20280;-72
2022/07/28 15:06:46;;;;;;;;;;;50.80;36.90;;;;;;4906386;29;20084;-74
2022/07/28 15:09:36;;;;;;;3.22;1.60;;;51.00;37.00;;;;;;4892868;29;20021;-75
2022/07/28 15:12:08;;;;;;;3.57;1.50;;;51.60;37.30;;;;;;4905852;29;20032;-72
2022/07/28 15:14:34;;;;;;;3.33;1.70;;;50.70;37.30;;;;;;4886216;29;20474;-73
2022/07/28 15:17:01;;;;;;;4.53;1.60;;;49.50;37.80;;;;;;4903118;29;20109;-74
2022/07/28 15:19:38;;;;;;;3.60;1.55;;;48.80;38.10;;;;;;4908111;29;20048;-72
2022/07/28 15:22:05;;;;;;;5.95;1.73;;;48.60;38.20;;;;;;4906592;29;20048;-73
2022/07/28 15:24:33;;;;;;;5.43;1.95;;;48.20;38.70;;;;;;4892578;29;20255;-75
2022/07/28 15:27:06;;;;;;;3.22;1.85;;;48.50;38.30;;;;;;4925698;29;20088;-73
2022/07/28 15:29:38;;;;;;;3.05;1.70;;;48.30;38.10;;;;;;4924759;29;20028;-74
2022/07/28 15:32:04;;;;;;;4.07;2.00;;;47.40;38.20;;;;;;4891691;29;20036;-73
2022/07/28 15:34:31;;;;;;;4.18;1.67;;;47.20;38.70;;;;;;4906602;29;20093;-73
2022/07/28 15:36:57;;;;;;;3.07;1.70;;;46.80;38.30;;;;;;4890234;29;20033;-73
2022/07/28 15:39:28;;;;;;;3.27;1.60;;;48.20;38.20;;;;;;4906467;29;20048;-71
2022/07/28 15:41:54;;;;;;;3.85;1.50;;;48.80;37.60;;;;;;4889513;29;20048;-72
2022/07/28 15:44:21;;;;;;;3.00;1.40;;;48.80;37.50;;;;;;4906092;29;20264;-72
2022/07/28 15:46:47;;;;;;;3.03;1.65;;;48.50;37.20;;;;;;4894536;29;20040;-74
2022/07/28 15:49:13;;;;;;;4.68;1.95;;;48.10;37.30;;;;;;4887466;29;20334;-72
2022/07/28 15:51:39;;;;;;;4.45;1.63;;;47.50;37.60;;;;;;4856107;29;20207;-72
2022/07/28 15:54:05;;;;;;;3.45;1.70;;;46.90;37.50;;;;;;4871347;29;20029;-72
2022/07/28 15:56:36;;;;;;;3.88;1.40;;;45.90;38.00;;;;;;4886580;29;20049;-72
2022/07/28 15:59:03;;;;;;;3.97;2.13;;;44.90;38.10;;;;;;4887968;29;20044;-71
2022/07/28 16:01:30;;;;;;;3.30;1.83;;;44.10;38.70;;;;;;4889479;29;20045;-71
2022/07/28 16:03:58;;;;;;;2.38;1.63;;;44.10;39.10;;;;;;4915378;29;20044;-71
2022/07/28 16:06:24;;;;;;;2.58;1.60;;;43.20;39.60;;;;;;4920983;29;20064;-72
2022/07/28 16:08:50;;;;;;;3.50;1.57;;;42.40;39.90;;;;;;4891243;29;20036;-73
2022/07/28 16:11:19;;;;;;;3.47;1.75;;;41.90;40.30;;;;;;4890712;29;20025;-72
2022/07/28 16:13:45;;;;;;;2.95;2.00;;;42.30;40.30;;;;;;4874718;29;20120;-72
2022/07/28 16:16:14;;;;;;;3.70;1.90;;;42.60;40.10;;;;;;4860586;29;20275;-72
2022/07/28 16:18:41;;;;;;;3.88;1.55;;;43.60;39.60;;;;;;4909653;29;20085;-71
2022/07/28 16:21:11;;;;;;;2.42;1.60;;;44.10;39.10;;;;;;4893162;29;20085;-71
2022/07/28 16:23:37;;;;;;;5.45;2.40;;;43.50;39.30;;;;;;4909636;29;20142;-72
2022/07/28 16:26:07;;;;;;;3.38;1.63;;;43.40;39.50;;;;;;4893408;29;20020;-72
2022/07/28 16:28:34;;;;;;;3.65;1.63;;;43.00;40.00;;;;;;4909535;29;20033;-71
2022/07/28 16:31:01;;;;;;;3.10;1.67;;;43.00;40.10;;;;;;4892604;29;20356;-73
2022/07/28 16:33:26;;;;;;;3.80;1.88;;;42.40;40.30;;;;;;4904646;29;20040;-71
2022/07/28 16:35:52;;;;;;;6.35;2.22;;;42.10;40.00;;;;;;4909701;29;20033;-72
2022/07/28 16:38:18;;;;;;;3.42;1.80;;;42.80;40.10;;;;;;4892623;29;20058;-74
2022/07/28 16:40:47;;;;;;;3.25;1.60;;;43.60;39.90;;;;;;4877552;29;20304;-71
2022/07/28 16:43:13;;;;;;;3.63;1.60;;;44.20;38.80;;;;;;4890139;29;20058;-74
2022/07/28 16:45:39;;;;;;;3.28;1.55;;;44.60;38.70;;;;;;4908752;29;20044;-74
2022/07/28 16:48:11;;;;;;;3.60;1.80;;;45.00;38.30;;;;;;4909472;29;20039;-72
2022/07/28 16:50:37;;;;;;;4.55;1.50;;;44.00;38.40;;;;;;4877005;29;20033;-72
2022/07/28 16:53:05;;;;;;;3.03;1.65;;;43.00;38.90;;;;;;4908196;29;20334;-73
2022/07/28 16:55:31;;;;;;;3.20;1.42;;;41.10;39.70;;;;;;4909373;29;20387;-72
2022/07/28 16:58:00;;;;;;;2.20;1.70;;;39.70;40.90;;;;;;4909986;29;20024;-73
2022/07/28 17:00:26;;;;;;;4.43;1.80;;;38.50;41.90;;;;;;4911665;29;20068;-70
2022/07/28 17:02:57;;;;;;;4.38;2.10;;;37.50;42.90;;;;;;4932136;29;20043;-71
2022/07/28 17:05:23;;;;;;;3.67;1.95;;;36.30;44.00;;;;;;4910788;29;20039;-74
2022/07/28 17:07:50;;;;;;;3.03;1.70;;;35.70;45.10;;;;;;4928027;29;20028;-69
2022/07/28 17:10:16;;;;;;;5.32;1.98;;;35.40;45.20;;;;;;4928137;29;20333;-73
2022/07/28 17:12:42;;;;;;;4.22;2.08;;;35.20;45.50;;;;;;4927785;29;20039;-72
2022/07/28 17:15:08;;;;;;;3.53;2.10;;;35.10;45.50;;;;;;4926251;29;20039;-73
2022/07/28 17:17:34;;;;;;;3.40;1.90;;;34.90;45.80;;;;;;4926036;29;20322;-72
2022/07/28 17:20:06;;;;;;;3.55;2.17;;;35.00;45.80;;;;;;4927774;29;20032;-72
2022/07/28 17:22:35;;;;;;;4.22;2.65;;;35.00;45.60;;;;;;4926700;29;20040;-71
2022/07/28 17:25:06;;;;;;;4.38;2.28;;;34.70;45.60;;;;;;4910976;29;20075;-70
2022/07/28 17:27:33;;;;;;;2.60;1.85;;;34.70;45.70;;;;;;4941584;29;20044;-71
2022/07/28 17:29:59;;;;;;;3.45;1.98;;;34.50;46.00;;;;;;4910805;29;20031;-70
2022/07/28 17:32:25;;;;;;;3.65;1.90;;;34.10;46.50;;;;;;4926535;29;20040;-72
2022/07/28 17:34:54;;;;;;;3.80;2.47;;;33.90;46.90;;;;;;4910500;29;20040;-72
2022/07/28 17:37:23;;;;;;;4.57;2.65;;;33.70;47.00;;;;;;4926641;29;20036;-71
2022/07/28 17:39:48;;;;;;;3.25;2.08;;;33.70;47.00;;;;;;4927299;29;20036;-71
2022/07/28 17:42:17;;;;;;;4.22;2.15;;;33.20;47.10;;;;;;4926396;29;20084;-72
2022/07/28 17:44:46;;;;;;;3.00;1.77;;;32.90;48.10;;;;;;4927157;29;20117;-71
2022/07/28 17:47:19;;;;;;;3.97;2.13;;;32.60;48.00;;;;;;4926435;29;20186;-70
2022/07/28 17:49:45;;;;;;;6.78;2.22;;;32.20;48.40;;;;;;4927009;29;20070;-69
2022/07/28 17:52:20;;;;;;;4.55;2.22;;;31.90;48.90;;;;;;4926661;29;20024;-71
2022/07/28 17:57:33;;;;;;;3.87;2.23;;;31.40;49.70;;;;;;4926489;29;20035;-70
2022/07/28 17:59:58;;;;;;;5.50;2.42;;;31.20;50.40;;;;;;4909912;29;20036;-70
2022/07/28 18:02:27;;;;;;;3.95;1.88;;;31.10;50.20;;;;;;4910180;29;20056;-70
2022/07/28 18:04:53;;;;;;;4.13;2.15;;;30.90;50.50;;;;;;4945975;29;20364;-69